YMAV 160500Z AUTO 29023KT 9999 // SCT031 SCT037 BKN043 15/09 Q1018

Station Name: Melbourne Gliding Club - YBSS

Location: Parwan, VIC, Australia
Last Updated on May 16 2021, 3:13 pm AEST
 
Wind Direction: North ** SUSPECT READING **
Wind Degrees: 360 ** SUSPECT READING **
Wind Speed (kts): 16
Wind 10 min AVG (kts): 14
Wind 10 min gust (kts): 18
Estimated Cloudbase (dewpoint) QNH : 3250 feet
Temperature (C): 13.8
Dewpoint (C): 8.3
Soil temp (C): 18.7
UV index: 0.0
.
Temperature HIGH (day): 14.3 at 1:55pm
Temperature LOW (day): 6.1 at 3:01am
Humidity: 70% Feels like: 10.0
Barometer: 1001.1 mb Falling Slowly
Solar radiation (W/m2): 63
------- .
Sunrise: 11:58pm
Sunset: 2:12pm
Rain past 24hrs: 0 mm
Seaonal total: 180.3 mm
Soil temp (C): 18.7
Soil moisture* (cb): 12 (1-4 use sealed areas, 10+ is dry)


TAF AMD YMAV 152325Z 1600/1700 30012KT 9999 FEW040 BECMG 1600/1601 28018G28KT 9999 BKN030 FM160700 27015KT 9999 SCT025 FM161200 27012KT 9999 -SHRA SCT012 BKN025 BECMG 1619/1621 25010KT 9999 NSW SCT025 BKN040 INTER 1615/1619 5000 SHRA BKN012

YMAV 160500Z AUTO 29023KT 9999 // SCT031 SCT037 BKN043 15/09 Q1018